Pagina principale
Immagini satellite Previsioni 15 giorniClimaMeteomar Cicloni Fulmine AeroportiFAQ Bollettino Informazioni
Tempo : Europa Africa America settentrionale America meridionale Asia Australia-Oceania Altri
Lingue Contatto

Genova, Italia

Sestri

latitudine: 44-25N, longitudine: 008-51E, altezza: 2 m


METAR: LIMJ 011120Z 19005KT 170V240 9999 FEW022 SCT026 26/20 Q1011
short-TAF: scaduto (50282 ore)
long-TAF: LIMJ 011100Z 0112/0212 15008KT 9999 BKN025

Ora: 13:51 (11:51 UTC)

Osservazione

Il bollettino è stato emesso 31 minuti fa, alle 11:20 UTC  
Vento 05 kt da sud, variando fra sud e ovest/sud-ovest
Temperature 26°C
Umidità 70%
Pressione 1011 hPa
Visibilità 10 km o più
Poco nuvoloso ad un'altezza di 2200 ft
Nubi sparse ad un'altezza di 2600 ft

Cambiare le unità

Previsione

Il bollettino è stato emesso 30 minuti fa, alle 11:21 UTC  
Previsione valida dal 01 alle 12 UTC al 02 alle 12 UTC
Vento 08 kt da sud/sud-est
Visibilità 10 km o più
Nuvoloso ad un'altezza di 2500 ft
Le informazioni contenute in questo sito formano oggetto di una clausola di esclusione di responsabilità
Tempo : Europa Africa America settentrionale America meridionale Asia Australia-Oceania Altri
Immagini satellite Previsioni 15 giorniClimaMeteomar Cicloni Fulmine AeroportiFAQ Lingue Contatto Bollettino Informazioni